createdAt,value
2023-05-05T00:08:19.194Z,15.6
2023-05-05T00:10:24.396Z,16.4
2023-05-05T00:14:28.558Z,7.4
2023-05-05T00:16:30.657Z,12.5
2023-05-05T00:18:32.735Z,21.1
2023-05-05T00:20:34.804Z,14.1
2023-05-05T00:22:36.875Z,13.7
2023-05-05T00:24:42.122Z,7.9
2023-05-05T00:26:44.206Z,7.3
2023-05-05T00:28:46.252Z,11.6
2023-05-05T00:42:04.520Z,15.6
2023-05-05T00:48:10.850Z,10.6
2023-05-05T00:52:18.065Z,17.6
2023-05-05T00:54:20.136Z,16.5
2023-05-05T00:56:22.267Z,12.1
2023-05-05T00:58:24.301Z,10
2023-05-05T01:00:26.397Z,11.6
2023-05-05T01:02:28.510Z,10.6
2023-05-05T01:28:02.327Z,20.3
2023-05-05T01:30:04.487Z,9.1
2023-05-05T01:32:06.518Z,9.6
2023-05-05T01:34:11.719Z,23
2023-05-05T01:36:13.805Z,16.6
2023-05-05T01:38:15.870Z,9.5
2023-05-05T01:46:24.235Z,14.2
2023-05-05T01:48:29.418Z,14.5
2023-05-05T01:50:31.483Z,15.5
2023-05-05T01:52:33.536Z,11.8
2023-05-05T02:00:41.848Z,22.7
2023-05-05T02:08:53.324Z,22.4
2023-05-05T02:10:55.392Z,16
2023-05-05T02:12:57.500Z,13.7
2023-05-05T02:22:11.542Z,18
2023-05-05T02:24:13.655Z,21.5
2023-05-05T02:26:15.719Z,17.4
2023-05-05T02:28:17.778Z,14.6
2023-05-05T02:30:23.020Z,21.1
2023-05-05T02:32:25.130Z,28.1
2023-05-05T02:36:29.256Z,24.7
2023-05-05T02:38:31.328Z,15.5
2023-05-05T02:40:33.400Z,18.5
2023-05-05T02:42:35.503Z,14.7
2023-05-05T02:44:40.700Z,16.7
2023-05-05T02:48:44.966Z,16.4
2023-05-05T02:50:46.952Z,17.8
2023-05-05T02:52:49.057Z,20.1
2023-05-05T02:56:53.216Z,16.6
2023-05-05T02:58:58.464Z,22.4
2023-05-05T03:01:02.095Z,18.7
2023-05-05T03:03:04.213Z,13.5
2023-05-05T03:05:06.224Z,13.6
2023-05-05T03:07:08.319Z,19.5
2023-05-05T03:09:10.412Z,15.3
2023-05-05T03:11:12.496Z,19.3
2023-05-05T03:13:17.749Z,16.7
2023-05-05T03:15:19.803Z,19.6
2023-05-05T03:17:21.912Z,23
2023-05-05T03:19:50.560Z,13.9
2023-05-05T03:21:52.639Z,17
2023-05-05T03:23:54.734Z,15.5
2023-05-05T03:25:59.955Z,18.7
2023-05-05T03:28:02.041Z,20.1
2023-05-05T03:30:04.132Z,23.1
2023-05-05T03:32:06.317Z,24.7
2023-05-05T03:34:08.278Z,15.7
2023-05-05T03:36:10.383Z,24.4
2023-05-05T03:38:12.443Z,18.6
2023-05-05T03:40:17.683Z,22
2023-05-05T03:42:19.762Z,20.7
2023-05-05T03:44:21.825Z,20.9
2023-05-05T03:46:23.909Z,27.2
2023-05-05T03:48:25.975Z,22
2023-05-05T03:50:28.069Z,21
2023-05-05T03:52:30.129Z,24.6
2023-05-05T03:54:35.343Z,17.9
2023-05-05T03:56:37.431Z,29
2023-05-05T03:58:39.532Z,21.5
2023-05-05T04:00:41.585Z,21
2023-05-05T04:02:43.963Z,19.9
2023-05-05T04:06:47.826Z,27.5
2023-05-05T04:10:55.127Z,24.2
2023-05-05T04:13:59.809Z,22.1
2023-05-05T04:16:01.920Z,18.8
2023-05-05T04:18:03.995Z,18
2023-05-05T04:28:19.063Z,23.8
2023-05-05T04:34:23.707Z,18.5
2023-05-05T04:52:48.763Z,17.9
2023-05-05T04:58:54.889Z,19.9
2023-05-05T05:00:56.944Z,21.3
2023-05-05T05:02:59.070Z,30.3
2023-05-05T05:05:04.244Z,22.4
2023-05-05T05:09:08.345Z,18.8
2023-05-05T05:10:11.138Z,24.2
2023-05-05T05:14:15.132Z,12.9
2023-05-05T05:16:17.221Z,15.7
2023-05-05T05:18:22.402Z,22.4
2023-05-05T05:20:24.484Z,13
2023-05-05T05:22:26.549Z,14.7
2023-05-05T05:24:28.615Z,15.8
2023-05-05T05:26:30.680Z,19.4
2023-05-05T05:28:32.757Z,14.8
2023-05-05T05:30:34.842Z,15.3
2023-05-05T05:36:44.188Z,17.1
2023-05-05T05:38:46.255Z,15.4
2023-05-05T05:40:48.319Z,15
2023-05-05T05:42:50.414Z,17.6
2023-05-05T05:44:52.475Z,13.7
2023-05-05T06:06:22.122Z,16.6
2023-05-05T06:08:25.117Z,19.1
2023-05-05T06:10:27.907Z,31
2023-05-05T06:12:28.346Z,27.7
2023-05-05T06:14:33.583Z,16.8
2023-05-05T06:18:37.750Z,12.7
2023-05-05T06:20:39.804Z,22.3
2023-05-05T06:22:41.900Z,16.5
2023-05-05T06:24:43.968Z,12.5
2023-05-05T06:26:46.071Z,18.1
2023-05-05T06:30:53.360Z,22.4
2023-05-05T06:32:55.497Z,18.9
2023-05-05T06:34:57.552Z,14
2023-05-05T06:36:59.646Z,14.4
2023-05-05T06:39:01.735Z,17.4
2023-05-05T06:41:03.793Z,11.1
2023-05-05T06:43:09.050Z,16.2
2023-05-05T06:51:17.355Z,17.6
2023-05-05T06:53:19.468Z,15.3
2023-05-05T06:55:21.537Z,10.1
2023-05-05T06:59:28.948Z,11
2023-05-05T07:01:30.988Z,12.7
2023-05-05T07:03:59.605Z,11.4
2023-05-05T07:06:01.656Z,10.7
2023-05-05T07:08:03.769Z,8.6
2023-05-05T07:10:09.173Z,7.7
2023-05-05T07:12:11.053Z,4.6
2023-05-05T07:14:13.159Z,6.9
2023-05-05T07:16:15.226Z,10.1
2023-05-05T07:18:17.321Z,6.7
2023-05-05T07:20:19.404Z,5.6
2023-05-05T07:22:21.489Z,6.9
2023-05-05T07:24:26.730Z,8.8
2023-05-05T07:26:28.802Z,15.3
2023-05-05T07:30:33.019Z,3
2023-05-05T07:36:39.248Z,5.9
2023-05-05T07:40:46.582Z,4.8
2023-05-05T07:42:48.637Z,3
2023-05-05T07:44:50.717Z,5.1
2023-05-05T07:46:52.823Z,7.7
2023-05-05T07:50:56.993Z,3.6
2023-05-05T07:55:04.341Z,3.5
2023-05-05T07:57:06.390Z,10
2023-05-05T07:58:09.059Z,3.5
2023-05-05T08:00:11.648Z,6.9
2023-05-05T08:02:13.197Z,7.1
2023-05-05T08:04:15.364Z,6.7
2023-05-05T08:06:20.513Z,6.3
2023-05-05T08:08:22.590Z,4.2
2023-05-05T08:10:24.745Z,4.2
2023-05-05T08:14:28.854Z,4.6
2023-05-05T08:16:31.181Z,4.6
2023-05-05T08:18:33.043Z,6.3
2023-05-05T08:20:38.256Z,4.2
2023-05-05T08:22:40.335Z,5.5
2023-05-05T08:30:48.675Z,8.1
2023-05-05T08:32:50.797Z,7.1
2023-05-05T08:54:22.016Z,1.9
2023-05-05T08:56:24.047Z,2.6
2023-05-05T08:58:28.813Z,7
2023-05-05T09:04:35.567Z,10.9
2023-05-05T09:06:37.629Z,3.3
2023-05-05T09:08:39.755Z,10.6
2023-05-05T09:20:56.806Z,1.4
2023-05-05T09:27:01.587Z,7.7
2023-05-05T09:29:03.649Z,15.4
2023-05-05T09:33:10.998Z,8.2
2023-05-05T09:35:13.021Z,2.5
2023-05-05T09:37:15.105Z,2.9
2023-05-05T09:39:17.173Z,4.6
2023-05-05T09:43:21.336Z,3.5
2023-05-05T09:45:26.552Z,4
2023-05-05T09:47:29.859Z,5
2023-05-05T09:49:30.708Z,10.3
2023-05-05T10:17:06.565Z,11.8
2023-05-05T10:19:08.643Z,2.2
2023-05-05T10:21:10.727Z,15.4
2023-05-05T10:23:12.790Z,7.2
2023-05-05T10:27:20.105Z,3.3
2023-05-05T10:29:22.171Z,4.6
2023-05-05T10:31:26.505Z,5.2
2023-05-05T10:33:31.973Z,5.8
2023-05-05T10:35:28.408Z,6.2
2023-05-05T10:39:32.532Z,10.8
2023-05-05T10:41:37.786Z,5.7
2023-05-05T10:43:39.847Z,4.3
2023-05-05T10:45:42.014Z,3.9
2023-05-05T10:48:10.564Z,7
2023-05-05T10:58:24.018Z,7.6
2023-05-05T11:10:39.621Z,4.5
2023-05-05T11:16:45.995Z,5.8
2023-05-05T11:18:47.898Z,6
2023-05-05T11:20:49.970Z,6.6
2023-05-05T11:22:55.190Z,5.4
2023-05-05T11:24:57.270Z,11.4
2023-05-05T11:26:59.325Z,3.2
2023-05-05T11:29:01.390Z,5
2023-05-05T11:31:03.510Z,2.7
2023-05-05T11:35:07.642Z,0.8
2023-05-05T11:42:19.636Z,2
2023-05-05T11:44:21.716Z,2.6
2023-05-05T11:46:23.881Z,1.4
2023-05-05T11:58:39.472Z,2.6
2023-05-05T12:00:41.601Z,1.7
2023-05-05T12:06:51.017Z,2.2
2023-05-05T12:08:53.119Z,3.2
2023-05-05T12:10:55.222Z,1.8
2023-05-05T12:21:08.820Z,5.2
2023-05-05T12:23:10.905Z,1.7
2023-05-05T12:27:15.092Z,11
2023-05-05T12:31:19.292Z,0.8
2023-05-05T12:33:24.470Z,3.1
2023-05-05T12:35:26.573Z,5.8
2023-05-05T12:37:28.662Z,5.7
2023-05-05T12:38:31.268Z,4.3
2023-05-05T12:40:33.366Z,5
2023-05-05T12:42:35.432Z,7.7
2023-05-05T12:44:37.505Z,5.2
2023-05-05T12:46:42.734Z,4.4
2023-05-05T12:48:47.977Z,16
2023-05-05T12:50:46.880Z,7
2023-05-05T12:52:48.974Z,7.9
2023-05-05T12:56:53.111Z,4.5
2023-05-05T12:58:55.180Z,6.3
2023-05-05T13:01:00.466Z,4
2023-05-05T13:03:02.559Z,7.6
2023-05-05T13:05:04.561Z,10.3
2023-05-05T13:07:06.643Z,6.4
2023-05-05T13:19:22.222Z,3.8
2023-05-05T13:21:24.272Z,4.2
2023-05-05T13:23:26.360Z,11
2023-05-05T13:25:28.485Z,6.7
2023-05-05T13:27:30.513Z,7.1
2023-05-05T13:29:35.732Z,7.2
2023-05-05T13:31:37.837Z,9.3
2023-05-05T13:33:39.844Z,12.5
2023-05-05T13:34:42.464Z,7.7
2023-05-05T13:40:48.701Z,7.7
2023-05-05T13:42:53.922Z,12.7
2023-05-05T13:46:58.111Z,7.4
2023-05-05T13:51:02.199Z,7.1
2023-05-05T13:53:04.279Z,10.9
2023-05-05T14:03:17.792Z,10.2
2023-05-05T14:25:46.930Z,10.2
2023-05-05T14:34:21.867Z,4.9
2023-05-05T14:36:23.935Z,2.7
2023-05-05T14:38:29.206Z,3.4
2023-05-05T14:42:33.300Z,3.2
2023-05-05T14:44:36.973Z,2.5
2023-05-05T14:46:38.996Z,6.2
2023-05-05T14:48:41.102Z,3.7
2023-05-05T14:50:43.175Z,1.5
2023-05-05T14:52:48.378Z,2.3
2023-05-05T14:54:50.484Z,3.9
2023-05-05T14:56:52.545Z,6.4
2023-05-05T14:58:54.611Z,4
2023-05-05T15:02:58.808Z,5.8
2023-05-05T15:07:06.068Z,9
2023-05-05T15:11:10.232Z,13.2
2023-05-05T15:13:12.341Z,9.2
2023-05-05T15:15:14.387Z,3.2
2023-05-05T15:17:16.504Z,1.5
2023-05-05T15:19:18.553Z,11.1
2023-05-05T15:21:23.785Z,3.7
2023-05-05T15:23:25.854Z,1.8
2023-05-05T15:25:27.935Z,3.2
2023-05-05T15:36:44.089Z,4.3
2023-05-05T15:38:46.175Z,2.9
2023-05-05T15:40:50.064Z,1.3
2023-05-05T15:51:01.819Z,2.2
2023-05-05T15:53:03.897Z,3.5
2023-05-05T15:55:06.074Z,6.4
2023-05-05T15:57:08.057Z,2.8
2023-05-05T15:59:10.141Z,1.1
2023-05-05T16:01:12.288Z,2.3
2023-05-05T16:03:17.513Z,1.6
2023-05-05T16:05:20.719Z,2.2
2023-05-05T16:07:21.644Z,3.7
2023-05-05T16:09:23.697Z,1.6
2023-05-05T16:11:25.741Z,3.8
2023-05-05T16:13:27.844Z,1.8
2023-05-05T16:15:29.878Z,1.5
2023-05-05T16:19:37.203Z,3.7
2023-05-05T16:22:41.854Z,1.6
2023-05-05T16:24:44.395Z,1.3
2023-05-05T16:26:45.976Z,3.1
2023-05-05T16:28:48.033Z,2.2
2023-05-05T16:30:53.261Z,3.7
2023-05-05T16:36:59.495Z,0.9
2023-05-05T16:39:01.554Z,2.3
2023-05-05T16:41:03.684Z,2.9
2023-05-05T16:43:05.711Z,2.5
2023-05-05T16:45:11.036Z,3.2
2023-05-05T16:47:13.044Z,1.2
2023-05-05T16:53:19.281Z,1.3
2023-05-05T16:55:21.371Z,1.4
2023-05-05T16:57:23.442Z,0.8
2023-05-05T16:59:30.312Z,6.2
2023-05-05T17:01:30.832Z,0.6
2023-05-05T17:03:32.885Z,0.8
2023-05-05T17:05:35.038Z,1.1
2023-05-05T17:07:37.055Z,0.8
2023-05-05T17:09:39.147Z,1.7
2023-05-05T17:11:41.223Z,0.7
2023-05-05T17:13:46.453Z,4.7
2023-05-05T17:15:48.589Z,2.7
2023-05-05T17:18:53.261Z,3.6
2023-05-05T17:20:55.357Z,1.5
2023-05-05T17:22:57.434Z,5.9
2023-05-05T17:24:59.526Z,1.7
2023-05-05T17:27:04.779Z,6.8
2023-05-05T17:29:06.849Z,3.9
2023-05-05T17:31:08.930Z,1.2
2023-05-05T17:33:11.036Z,2.2
2023-05-05T17:35:13.122Z,2.4
2023-05-05T17:37:15.216Z,3.9
2023-05-05T17:41:22.524Z,2.2
2023-05-05T17:43:24.621Z,1.4
2023-05-05T17:45:26.680Z,2.5
2023-05-05T17:49:30.865Z,3.5
2023-05-05T17:51:32.956Z,1.6
2023-05-05T17:53:35.037Z,3.3
2023-05-05T17:55:40.257Z,1.8
2023-05-05T17:59:44.431Z,2.1
2023-05-05T18:03:48.664Z,1.4
2023-05-05T18:05:50.681Z,2.7
2023-05-05T18:18:32.998Z,2.9
2023-05-05T18:30:48.495Z,22.8
2023-05-05T18:45:06.306Z,8.2
2023-05-05T18:53:17.673Z,3.8
2023-05-05T18:57:21.787Z,8.3
2023-05-05T19:07:36.037Z,5.4
2023-05-05T19:10:40.003Z,3.6
2023-05-05T19:12:42.117Z,4.5
2023-05-05T19:14:44.141Z,10
2023-05-05T19:16:46.314Z,4
2023-05-05T19:20:53.501Z,3.1
2023-05-05T19:37:13.251Z,7.3
2023-05-05T19:39:15.979Z,3.5
2023-05-05T19:41:17.393Z,8.9
2023-05-05T19:43:19.454Z,6.5
2023-05-05T19:53:32.990Z,7.4
2023-05-05T19:55:35.074Z,4.7
2023-05-05T19:57:37.151Z,7.4
2023-05-05T19:59:39.192Z,8
2023-05-05T20:03:46.623Z,13.1
2023-05-05T20:05:48.585Z,6.8
2023-05-05T20:06:51.172Z,3.8
2023-05-05T20:17:04.689Z,5.8
2023-05-05T20:23:10.925Z,24
2023-05-05T20:25:12.988Z,11.6
2023-05-05T20:27:15.070Z,12.8
2023-05-05T20:31:22.353Z,8.8
2023-05-05T20:51:47.757Z,5.3
2023-05-05T20:55:51.882Z,6.6
2023-05-05T21:03:03.845Z,7.1
2023-05-05T21:05:05.893Z,5.4
2023-05-05T21:07:07.963Z,5
2023-05-05T21:09:10.037Z,7.6
2023-05-05T21:11:15.246Z,11
2023-05-05T21:13:17.353Z,8.2
2023-05-05T21:15:19.386Z,9.3
2023-05-05T21:17:21.471Z,7.6
2023-05-05T21:19:23.480Z,8.8
2023-05-05T21:21:25.559Z,10
2023-05-05T21:23:27.597Z,17.6
2023-05-05T21:25:32.816Z,8.5
2023-05-05T21:27:34.862Z,6.2
2023-05-05T21:29:36.919Z,12.7
2023-05-05T21:31:39.047Z,10
2023-05-05T21:33:41.044Z,6.5
2023-05-05T21:35:43.096Z,9.3
2023-05-05T21:37:45.156Z,9.9
2023-05-05T21:41:52.408Z,13.8
2023-05-05T21:43:54.510Z,12.4
2023-05-05T21:45:56.552Z,14.7
2023-05-05T21:47:58.663Z,15.6
2023-05-05T21:52:02.714Z,15.2
2023-05-05T21:54:07.929Z,15.2
2023-05-05T21:58:12.126Z,15.6
2023-05-05T22:02:42.919Z,14.9
2023-05-05T22:04:44.887Z,17
2023-05-05T22:10:54.207Z,17.5
2023-05-05T22:12:56.406Z,18.5
2023-05-05T22:14:58.448Z,14.3
2023-05-05T22:17:00.467Z,14
2023-05-05T22:19:02.650Z,16.7
2023-05-05T22:21:07.917Z,19.7
2023-05-05T22:23:10.057Z,15.7
2023-05-05T22:25:12.239Z,12.4
2023-05-05T22:27:14.277Z,17.6
2023-05-05T22:29:16.429Z,14
2023-05-05T22:31:18.537Z,15.9
2023-05-05T22:33:20.631Z,26.7
2023-05-05T22:35:25.897Z,17.1
2023-05-05T22:37:27.964Z,25.7
2023-05-05T22:39:30.094Z,16.1
2023-05-05T22:41:32.141Z,20.3
2023-05-05T22:49:43.939Z,16.7
2023-05-05T22:51:45.911Z,18.5
2023-05-05T22:53:47.965Z,18.6
2023-05-05T22:56:52.687Z,20
2023-05-05T22:58:54.750Z,15.3
2023-05-05T23:00:56.925Z,18.7
2023-05-05T23:03:02.351Z,23.9
2023-05-05T23:21:24.327Z,25.8
2023-05-05T23:23:26.470Z,17.6
2023-05-05T23:25:28.611Z,21.4
2023-05-05T23:27:30.761Z,20.3
2023-05-05T23:37:44.542Z,18.7
2023-05-05T23:51:02.846Z,18.4
2023-05-05T23:53:04.994Z,13.5
2023-05-05T23:57:09.281Z,18.1
